sensor_id;sensor_type;location;lat;lon;timestamp;pressure;altitude;pressure_sealevel;temperature;humidity
62800;BME280;48842;51.046;13.796;2023-04-01T00:01:54;98581.56;;;13.05;60.50
62800;BME280;48842;51.046;13.796;2023-04-01T00:04:19;98582.59;;;13.01;61.29
62800;BME280;48842;51.046;13.796;2023-04-01T00:06:45;98573.69;;;13.05;61.30
62800;BME280;48842;51.046;13.796;2023-04-01T00:09:12;98570.06;;;13.08;61.28
62800;BME280;48842;51.046;13.796;2023-04-01T00:11:37;98574.88;;;12.97;61.82
62800;BME280;48842;51.046;13.796;2023-04-01T00:14:03;98568.97;;;12.90;62.21
62800;BME280;48842;51.046;13.796;2023-04-01T00:16:28;98572.44;;;12.90;62.36
62800;BME280;48842;51.046;13.796;2023-04-01T00:18:54;98561.97;;;12.89;62.18
62800;BME280;48842;51.046;13.796;2023-04-01T00:21:20;98566.16;;;12.95;61.87
62800;BME280;48842;51.046;13.796;2023-04-01T00:23:48;98569.16;;;12.84;62.03
62800;BME280;48842;51.046;13.796;2023-04-01T00:26:13;98566.75;;;12.78;62.02
62800;BME280;48842;51.046;13.796;2023-04-01T00:28:40;98565.78;;;12.80;62.16
62800;BME280;48842;51.046;13.796;2023-04-01T00:31:07;98570.19;;;12.80;62.52
62800;BME280;48842;51.046;13.796;2023-04-01T00:33:32;98568.19;;;12.86;61.84
62800;BME280;48842;51.046;13.796;2023-04-01T00:36:06;98574.31;;;12.87;61.90
62800;BME280;48842;51.046;13.796;2023-04-01T00:38:31;98570.25;;;12.78;61.89
62800;BME280;48842;51.046;13.796;2023-04-01T00:40:57;98572.69;;;12.83;61.96
62800;BME280;48842;51.046;13.796;2023-04-01T00:43:23;98580.63;;;12.81;62.22
62800;BME280;48842;51.046;13.796;2023-04-01T00:45:49;98572.66;;;12.84;62.05
62800;BME280;48842;51.046;13.796;2023-04-01T00:48:17;98583.00;;;12.89;61.90
62800;BME280;48842;51.046;13.796;2023-04-01T00:50:47;98575.44;;;12.80;62.34
62800;BME280;48842;51.046;13.796;2023-04-01T00:53:13;98583.09;;;12.86;62.02
62800;BME280;48842;51.046;13.796;2023-04-01T00:55:42;98569.81;;;12.90;61.86
62800;BME280;48842;51.046;13.796;2023-04-01T00:58:14;98567.22;;;12.89;62.09
62800;BME280;48842;51.046;13.796;2023-04-01T01:00:42;98583.00;;;12.89;61.91
62800;BME280;48842;51.046;13.796;2023-04-01T01:03:08;98571.13;;;12.77;62.48
62800;BME280;48842;51.046;13.796;2023-04-01T01:05:49;98572.00;;;12.78;62.50
62800;BME280;48842;51.046;13.796;2023-04-01T01:11:24;98570.41;;;12.73;62.68
62800;BME280;48842;51.046;13.796;2023-04-01T01:21:55;98573.31;;;12.64;62.03
62800;BME280;48842;51.046;13.796;2023-04-01T01:27:03;98563.41;;;12.72;62.12
62800;BME280;48842;51.046;13.796;2023-04-01T01:29:51;98565.88;;;12.77;61.50
62800;BME280;48842;51.046;13.796;2023-04-01T01:32:44;98564.97;;;12.78;61.48
62800;BME280;48842;51.046;13.796;2023-04-01T01:35:33;98571.91;;;12.81;61.50
62800;BME280;48842;51.046;13.796;2023-04-01T01:38:02;98564.75;;;12.84;61.63
62800;BME280;48842;51.046;13.796;2023-04-01T01:40:29;98569.56;;;12.71;60.91
62800;BME280;48842;51.046;13.796;2023-04-01T01:42:59;98572.16;;;12.73;61.39
62800;BME280;48842;51.046;13.796;2023-04-01T01:45:26;98571.50;;;12.66;61.61
62800;BME280;48842;51.046;13.796;2023-04-01T01:47:53;98572.25;;;12.70;61.67
62800;BME280;48842;51.046;13.796;2023-04-01T01:50:21;98567.22;;;12.64;61.74
62800;BME280;48842;51.046;13.796;2023-04-01T01:52:47;98574.94;;;12.68;61.77
62800;BME280;48842;51.046;13.796;2023-04-01T01:55:33;98573.31;;;12.64;61.50
62800;BME280;48842;51.046;13.796;2023-04-01T01:58:02;98570.63;;;12.66;61.89
62800;BME280;48842;51.046;13.796;2023-04-01T02:00:29;98574.28;;;12.62;61.74
62800;BME280;48842;51.046;13.796;2023-04-01T02:02:56;98573.25;;;12.66;61.87
62800;BME280;48842;51.046;13.796;2023-04-01T02:05:24;98574.03;;;12.69;61.52
62800;BME280;48842;51.046;13.796;2023-04-01T02:08:02;98573.13;;;12.70;61.35
62800;BME280;48842;51.046;13.796;2023-04-01T02:10:31;98572.03;;;12.76;61.15
62800;BME280;48842;51.046;13.796;2023-04-01T02:13:01;98576.34;;;12.79;61.20
62800;BME280;48842;51.046;13.796;2023-04-01T02:15:33;98572.66;;;12.84;61.30
62800;BME280;48842;51.046;13.796;2023-04-01T02:18:03;98569.38;;;12.78;60.85
62800;BME280;48842;51.046;13.796;2023-04-01T02:20:30;98571.03;;;12.80;61.06
62800;BME280;48842;51.046;13.796;2023-04-01T02:22:56;98567.44;;;12.83;61.27
62800;BME280;48842;51.046;13.796;2023-04-01T02:25:28;98571.34;;;12.71;60.80
62800;BME280;48842;51.046;13.796;2023-04-01T02:27:57;98564.22;;;12.74;60.63
62800;BME280;48842;51.046;13.796;2023-04-01T02:30:23;98564.88;;;12.81;60.53
62800;BME280;48842;51.046;13.796;2023-04-01T02:32:51;98575.69;;;12.72;60.89
62800;BME280;48842;51.046;13.796;2023-04-01T02:35:17;98577.41;;;12.73;60.57
62800;BME280;48842;51.046;13.796;2023-04-01T02:37:43;98581.00;;;12.70;60.77
62800;BME280;48842;51.046;13.796;2023-04-01T02:40:12;98576.38;;;12.77;60.89
62800;BME280;48842;51.046;13.796;2023-04-01T02:42:37;98579.78;;;12.81;60.61
62800;BME280;48842;51.046;13.796;2023-04-01T02:45:04;98582.41;;;12.81;60.43
62800;BME280;48842;51.046;13.796;2023-04-01T02:47:29;98579.69;;;12.84;60.63
62800;BME280;48842;51.046;13.796;2023-04-01T02:49:54;98580.47;;;12.86;60.41
62800;BME280;48842;51.046;13.796;2023-04-01T02:52:24;98583.16;;;12.84;60.63
62800;BME280;48842;51.046;13.796;2023-04-01T02:54:49;98585.88;;;12.81;59.96
62800;BME280;48842;51.046;13.796;2023-04-01T02:57:14;98583.44;;;12.77;60.54
62800;BME280;48842;51.046;13.796;2023-04-01T02:59:40;98589.69;;;12.72;60.81
62800;BME280;48842;51.046;13.796;2023-04-01T03:02:05;98593.16;;;12.73;60.69
62800;BME280;48842;51.046;13.796;2023-04-01T03:04:31;98588.84;;;12.72;60.04
62800;BME280;48842;51.046;13.796;2023-04-01T03:06:57;98588.97;;;12.67;60.29
62800;BME280;48842;51.046;13.796;2023-04-01T03:09:22;98597.56;;;12.72;60.66
62800;BME280;48842;51.046;13.796;2023-04-01T03:11:47;98589.84;;;12.68;60.44
62800;BME280;48842;51.046;13.796;2023-04-01T03:14:12;98591.69;;;12.64;60.65
62800;BME280;48842;51.046;13.796;2023-04-01T03:16:38;98597.16;;;12.58;60.88
62800;BME280;48842;51.046;13.796;2023-04-01T03:19:03;98599.53;;;12.66;60.34
62800;BME280;48842;51.046;13.796;2023-04-01T03:21:28;98597.53;;;12.47;60.79
62800;BME280;48842;51.046;13.796;2023-04-01T03:23:53;98601.47;;;12.61;60.42
62800;BME280;48842;51.046;13.796;2023-04-01T03:26:19;98613.59;;;12.65;60.42
62800;BME280;48842;51.046;13.796;2023-04-01T03:28:45;98606.56;;;12.65;60.67
62800;BME280;48842;51.046;13.796;2023-04-01T03:31:10;98603.94;;;12.65;60.12
62800;BME280;48842;51.046;13.796;2023-04-01T03:33:36;98600.25;;;12.71;60.29
62800;BME280;48842;51.046;13.796;2023-04-01T03:36:01;98614.38;;;12.67;60.03
62800;BME280;48842;51.046;13.796;2023-04-01T03:38:28;98609.09;;;12.68;60.03
62800;BME280;48842;51.046;13.796;2023-04-01T03:40:53;98614.34;;;12.68;60.01
62800;BME280;48842;51.046;13.796;2023-04-01T03:43:18;98605.50;;;12.71;59.88
62800;BME280;48842;51.046;13.796;2023-04-01T03:45:48;98615.16;;;12.70;60.18
62800;BME280;48842;51.046;13.796;2023-04-01T03:48:14;98614.38;;;12.67;60.05
62800;BME280;48842;51.046;13.796;2023-04-01T03:50:39;98611.81;;;12.65;60.16
62800;BME280;48842;51.046;13.796;2023-04-01T03:53:05;98619.69;;;12.65;60.20
62800;BME280;48842;51.046;13.796;2023-04-01T03:55:30;98616.53;;;12.54;59.93
62800;BME280;48842;51.046;13.796;2023-04-01T03:57:55;98620.69;;;12.61;60.38
62800;BME280;48842;51.046;13.796;2023-04-01T04:00:20;98624.00;;;12.68;60.02
62800;BME280;48842;51.046;13.796;2023-04-01T04:02:46;98629.19;;;12.69;60.22
62800;BME280;48842;51.046;13.796;2023-04-01T04:05:11;98625.72;;;12.69;59.51
62800;BME280;48842;51.046;13.796;2023-04-01T04:07:38;98626.47;;;12.72;59.93
62800;BME280;48842;51.046;13.796;2023-04-01T04:10:03;98622.00;;;12.74;59.84
62800;BME280;48842;51.046;13.796;2023-04-01T04:12:29;98622.88;;;12.75;59.83
62800;BME280;48842;51.046;13.796;2023-04-01T04:14:54;98625.34;;;12.80;59.29
62800;BME280;48842;51.046;13.796;2023-04-01T04:17:19;98620.00;;;12.83;59.89
62800;BME280;48842;51.046;13.796;2023-04-01T04:19:45;98622.53;;;12.86;58.96
62800;BME280;48842;51.046;13.796;2023-04-01T04:22:10;98636.50;;;12.86;59.04
62800;BME280;48842;51.046;13.796;2023-04-01T04:24:35;98633.84;;;12.88;59.39
62800;BME280;48842;51.046;13.796;2023-04-01T04:27:01;98639.97;;;12.88;58.65
62800;BME280;48842;51.046;13.796;2023-04-01T04:29:26;98642.59;;;12.88;58.99
62800;BME280;48842;51.046;13.796;2023-04-01T04:31:51;98640.91;;;12.86;58.80
62800;BME280;48842;51.046;13.796;2023-04-01T04:34:16;98643.53;;;12.86;59.04
62800;BME280;48842;51.046;13.796;2023-04-01T04:36:43;98647.88;;;12.87;58.61
62800;BME280;48842;51.046;13.796;2023-04-01T04:39:09;98648.69;;;12.89;58.76
62800;BME280;48842;51.046;13.796;2023-04-01T04:41:37;98641.69;;;12.89;58.59
62800;BME280;48842;51.046;13.796;2023-04-01T04:44:03;98653.88;;;12.90;58.46
62800;BME280;48842;51.046;13.796;2023-04-01T04:46:28;98647.78;;;12.90;58.22
62800;BME280;48842;51.046;13.796;2023-04-01T04:48:53;98661.03;;;12.87;58.28
62800;BME280;48842;51.046;13.796;2023-04-01T04:51:19;98663.00;;;12.80;57.68
62800;BME280;48842;51.046;13.796;2023-04-01T04:53:45;98661.13;;;12.84;57.92
62800;BME280;48842;51.046;13.796;2023-04-01T04:56:11;98653.34;;;12.81;57.92
62800;BME280;48842;51.046;13.796;2023-04-01T04:58:37;98660.31;;;12.82;57.75
62800;BME280;48842;51.046;13.796;2023-04-01T05:01:07;98664.72;;;12.81;57.90
62800;BME280;48842;51.046;13.796;2023-04-01T05:03:33;98673.50;;;12.80;58.12
62800;BME280;48842;51.046;13.796;2023-04-01T05:05:58;98663.09;;;12.77;58.07
62800;BME280;48842;51.046;13.796;2023-04-01T05:08:23;98677.13;;;12.76;57.79
62800;BME280;48842;51.046;13.796;2023-04-01T05:10:48;98668.50;;;12.72;57.89
62800;BME280;48842;51.046;13.796;2023-04-01T05:13:14;98673.59;;;12.77;58.50
62800;BME280;48842;51.046;13.796;2023-04-01T05:15:40;98664.72;;;12.81;57.73
62800;BME280;48842;51.046;13.796;2023-04-01T05:18:05;98673.56;;;12.79;57.56
62800;BME280;48842;51.046;13.796;2023-04-01T05:20:31;98688.72;;;12.70;57.91
62800;BME280;48842;51.046;13.796;2023-04-01T05:22:57;98672.81;;;12.75;58.16
62800;BME280;48842;51.046;13.796;2023-04-01T05:25:22;98679.63;;;12.81;58.16
62800;BME280;48842;51.046;13.796;2023-04-01T05:27:47;98683.94;;;12.82;58.09
62800;BME280;48842;51.046;13.796;2023-04-01T05:30:12;98682.22;;;12.82;58.18
62800;BME280;48842;51.046;13.796;2023-04-01T05:32:38;98677.69;;;12.86;58.19
62800;BME280;48842;51.046;13.796;2023-04-01T05:35:03;98686.59;;;12.82;58.35
62800;BME280;48842;51.046;13.796;2023-04-01T05:37:28;98684.88;;;12.81;58.45
62800;BME280;48842;51.046;13.796;2023-04-01T05:39:54;98692.66;;;12.84;58.23
62800;BME280;48842;51.046;13.796;2023-04-01T05:42:19;98682.84;;;12.89;58.13
62800;BME280;48842;51.046;13.796;2023-04-01T05:44:44;98686.41;;;12.88;58.32
62800;BME280;48842;51.046;13.796;2023-04-01T05:47:10;98688.97;;;12.89;57.89
62800;BME280;48842;51.046;13.796;2023-04-01T05:49:35;98688.00;;;12.92;58.16
62800;BME280;48842;51.046;13.796;2023-04-01T05:52:00;98685.38;;;12.92;58.53
62800;BME280;48842;51.046;13.796;2023-04-01T05:54:25;98698.72;;;12.86;58.56
62800;BME280;48842;51.046;13.796;2023-04-01T05:56:50;98692.63;;;12.85;58.27
62800;BME280;48842;51.046;13.796;2023-04-01T05:59:16;98691.56;;;12.91;58.25
62800;BME280;48842;51.046;13.796;2023-04-01T06:01:41;98696.09;;;12.86;58.23
62800;BME280;48842;51.046;13.796;2023-04-01T06:04:09;98695.94;;;12.90;58.33
62800;BME280;48842;51.046;13.796;2023-04-01T06:06:35;98701.28;;;12.87;58.57
62800;BME280;48842;51.046;13.796;2023-04-01T06:09:33;98699.53;;;12.88;58.48
62800;BME280;48842;51.046;13.796;2023-04-01T06:14:56;98702.19;;;12.88;58.65
62800;BME280;48842;51.046;13.796;2023-04-01T06:17:52;98702.06;;;12.91;59.01
62800;BME280;48842;51.046;13.796;2023-04-01T06:20:33;98699.28;;;12.96;58.99
62800;BME280;48842;51.046;13.796;2023-04-01T06:23:06;98698.34;;;12.98;58.81
62800;BME280;48842;51.046;13.796;2023-04-01T06:25:44;98706.88;;;13.05;58.73
62800;BME280;48842;51.046;13.796;2023-04-01T06:31:20;98712.06;;;13.06;58.06
62800;BME280;48842;51.046;13.796;2023-04-01T06:34:06;98712.78;;;13.12;57.80
62800;BME280;48842;51.046;13.796;2023-04-01T06:36:45;98709.84;;;13.21;58.20
62800;BME280;48842;51.046;13.796;2023-04-01T06:42:37;98705.81;;;13.37;57.05
62800;BME280;48842;51.046;13.796;2023-04-01T06:48:07;98716.78;;;13.50;57.00
62800;BME280;48842;51.046;13.796;2023-04-01T06:54:18;98718.16;;;13.60;56.26
62800;BME280;48842;51.046;13.796;2023-04-01T06:56:37;98715.94;;;13.50;55.33
62800;BME280;48842;51.046;13.796;2023-04-01T06:59:10;98719.56;;;13.46;55.40
62800;BME280;48842;51.046;13.796;2023-04-01T07:01:45;98714.03;;;13.53;55.56
62800;BME280;48842;51.046;13.796;2023-04-01T07:04:15;98718.56;;;13.50;55.04
62800;BME280;48842;51.046;13.796;2023-04-01T07:06:54;98712.06;;;13.60;55.53
62800;BME280;48842;51.046;13.796;2023-04-01T07:09:25;98713.69;;;13.64;55.18
62800;BME280;48842;51.046;13.796;2023-04-01T07:11:53;98723.72;;;13.53;54.59
62800;BME280;48842;51.046;13.796;2023-04-01T07:14:34;98708.81;;;13.52;54.59
62800;BME280;48842;51.046;13.796;2023-04-01T07:17:16;98728.81;;;13.57;54.70
62800;BME280;48842;51.046;13.796;2023-04-01T07:20:09;98738.78;;;13.48;54.43
62800;BME280;48842;51.046;13.796;2023-04-01T07:22:45;98728.97;;;13.53;54.59
62800;BME280;48842;51.046;13.796;2023-04-01T07:27:41;98734.66;;;13.40;54.72
62800;BME280;48842;51.046;13.796;2023-04-01T07:30:17;98736.97;;;13.50;55.73
62800;BME280;48842;51.046;13.796;2023-04-01T07:33:04;98735.53;;;13.66;55.19
62800;BME280;48842;51.046;13.796;2023-04-01T07:38:11;98745.47;;;13.83;54.17
62800;BME280;48842;51.046;13.796;2023-04-01T07:40:47;98741.38;;;13.74;53.65
62800;BME280;48842;51.046;13.796;2023-04-01T07:46:07;98741.50;;;13.71;53.81
62800;BME280;48842;51.046;13.796;2023-04-01T07:48:55;98736.13;;;13.74;53.65
62800;BME280;48842;51.046;13.796;2023-04-01T07:51:29;98742.19;;;13.76;53.89
62800;BME280;48842;51.046;13.796;2023-04-01T07:56:57;98749.22;;;13.76;53.96
62800;BME280;48842;51.046;13.796;2023-04-01T07:59:43;98749.84;;;13.83;54.40
62800;BME280;48842;51.046;13.796;2023-04-01T08:02:44;98755.72;;;13.91;53.28
62800;BME280;48842;51.046;13.796;2023-04-01T08:05:31;98758.69;;;13.82;53.45
62800;BME280;48842;51.046;13.796;2023-04-01T08:08:08;98746.44;;;13.81;53.49
62800;BME280;48842;51.046;13.796;2023-04-01T08:10:41;98755.88;;;13.86;53.66
62800;BME280;48842;51.046;13.796;2023-04-01T08:16:12;98761.75;;;13.94;53.53
62800;BME280;48842;51.046;13.796;2023-04-01T08:18:58;98768.22;;;14.09;53.55
62800;BME280;48842;51.046;13.796;2023-04-01T08:21:30;98766.09;;;14.19;53.55
62800;BME280;48842;51.046;13.796;2023-04-01T08:24:01;98774.56;;;14.04;52.97
62800;BME280;48842;51.046;13.796;2023-04-01T08:26:37;98769.25;;;14.05;52.71
62800;BME280;48842;51.046;13.796;2023-04-01T08:32:19;98768.16;;;14.11;52.85
62800;BME280;48842;51.046;13.796;2023-04-01T08:34:53;98772.00;;;14.02;52.38
62800;BME280;48842;51.046;13.796;2023-04-01T08:37:24;98773.81;;;14.00;52.40
62800;BME280;48842;51.046;13.796;2023-04-01T08:39:55;98772.53;;;14.12;52.75
62800;BME280;48842;51.046;13.796;2023-04-01T08:42:43;98765.94;;;14.24;52.39
62800;BME280;48842;51.046;13.796;2023-04-01T08:48:21;98769.84;;;14.13;51.69
62800;BME280;48842;51.046;13.796;2023-04-01T08:53:50;98766.69;;;14.27;51.67
62800;BME280;48842;51.046;13.796;2023-04-01T08:56:34;98767.44;;;14.31;51.99
62800;BME280;48842;51.046;13.796;2023-04-01T08:59:23;98773.56;;;14.31;51.75
62800;BME280;48842;51.046;13.796;2023-04-01T09:07:54;98773.69;;;14.28;52.45
62800;BME280;48842;51.046;13.796;2023-04-01T09:18:52;98786.56;;;14.36;51.37
62800;BME280;48842;51.046;13.796;2023-04-01T09:24:07;98790.22;;;14.32;51.36
62800;BME280;48842;51.046;13.796;2023-04-01T09:26:44;98775.19;;;14.36;51.53
62800;BME280;48842;51.046;13.796;2023-04-01T09:32:56;98784.88;;;14.34;51.05
62800;BME280;48842;51.046;13.796;2023-04-01T09:35:54;98784.84;;;14.35;51.29
62800;BME280;48842;51.046;13.796;2023-04-01T09:41:18;98783.91;;;14.36;51.68
62800;BME280;48842;51.046;13.796;2023-04-01T09:44:03;98777.63;;;14.40;51.33
62800;BME280;48842;51.046;13.796;2023-04-01T10:01:33;98798.03;;;14.59;51.00
62800;BME280;48842;51.046;13.796;2023-04-01T10:04:47;98794.22;;;14.68;50.95
62800;BME280;48842;51.046;13.796;2023-04-01T10:07:51;98791.22;;;14.77;50.41
62800;BME280;48842;51.046;13.796;2023-04-01T10:10:42;98788.81;;;14.71;50.04
62800;BME280;48842;51.046;13.796;2023-04-01T10:16:16;98807.19;;;14.48;50.22
62800;BME280;48842;51.046;13.796;2023-04-01T10:22:00;98796.38;;;14.56;50.29
62800;BME280;48842;51.046;13.796;2023-04-01T10:24:45;98799.00;;;14.56;50.78
62800;BME280;48842;51.046;13.796;2023-04-01T10:27:34;98796.91;;;14.66;50.39
62800;BME280;48842;51.046;13.796;2023-04-01T10:44:26;98805.19;;;14.79;50.91
62800;BME280;48842;51.046;13.796;2023-04-01T10:49:43;98798.09;;;14.81;50.80
62800;BME280;48842;51.046;13.796;2023-04-01T10:55:17;98803.50;;;14.78;50.61
62800;BME280;48842;51.046;13.796;2023-04-01T11:00:55;98801.81;;;14.75;50.41
62800;BME280;48842;51.046;13.796;2023-04-01T11:07:03;98792.53;;;14.89;49.65
62800;BME280;48842;51.046;13.796;2023-04-01T11:23:53;98799.41;;;15.80;49.86
62800;BME280;48842;51.046;13.796;2023-04-01T11:32:34;98787.41;;;16.14;49.34
62800;BME280;48842;51.046;13.796;2023-04-01T11:38:28;98803.88;;;16.19;50.60
62800;BME280;48842;51.046;13.796;2023-04-01T11:41:02;98803.44;;;16.30;50.64
62800;BME280;48842;51.046;13.796;2023-04-01T11:43:49;98806.84;;;16.32;49.70
62800;BME280;48842;51.046;13.796;2023-04-01T11:46:27;98795.75;;;16.23;48.61
62800;BME280;48842;51.046;13.796;2023-04-01T11:49:04;98803.88;;;16.19;48.82
62800;BME280;48842;51.046;13.796;2023-04-01T11:51:47;98804.88;;;16.16;48.85
62800;BME280;48842;51.046;13.796;2023-04-01T11:54:25;98808.41;;;16.17;49.49
62800;BME280;48842;51.046;13.796;2023-04-01T11:57:28;98814.28;;;16.03;51.30
62800;BME280;48842;51.046;13.796;2023-04-01T12:00:18;98812.56;;;15.81;52.90
62800;BME280;48842;51.046;13.796;2023-04-01T12:03:27;98815.31;;;15.78;53.73
62800;BME280;48842;51.046;13.796;2023-04-01T12:06:19;98811.81;;;15.98;54.07
62800;BME280;48842;51.046;13.796;2023-04-01T12:09:33;98801.72;;;16.29;53.45
62800;BME280;48842;51.046;13.796;2023-04-01T12:12:24;98796.22;;;16.52;53.23
62800;BME280;48842;51.046;13.796;2023-04-01T12:20:43;98802.03;;;16.80;51.22
62800;BME280;48842;51.046;13.796;2023-04-01T12:31:42;98799.47;;;16.78;49.85
62800;BME280;48842;51.046;13.796;2023-04-01T12:37:10;98812.53;;;16.43;49.97
62800;BME280;48842;51.046;13.796;2023-04-01T12:39:51;98813.25;;;16.26;50.65
62800;BME280;48842;51.046;13.796;2023-04-01T12:45:28;98808.06;;;16.04;52.02
62800;BME280;48842;51.046;13.796;2023-04-01T12:48:08;98817.19;;;15.97;52.51
62800;BME280;48842;51.046;13.796;2023-04-01T12:59:29;98822.25;;;16.01;54.31
62800;BME280;48842;51.046;13.796;2023-04-01T13:02:37;98827.22;;;16.09;54.48
62800;BME280;48842;51.046;13.796;2023-04-01T13:05:23;98825.84;;;16.21;53.08
62800;BME280;48842;51.046;13.796;2023-04-01T13:08:02;98822.84;;;16.29;52.76
62800;BME280;48842;51.046;13.796;2023-04-01T13:10:52;98818.09;;;16.37;52.44
62800;BME280;48842;51.046;13.796;2023-04-01T13:13:58;98818.97;;;16.56;52.34
62800;BME280;48842;51.046;13.796;2023-04-01T13:16:31;98817.84;;;16.81;52.68
62800;BME280;48842;51.046;13.796;2023-04-01T13:19:09;98814.66;;;17.30;52.34
62800;BME280;48842;51.046;13.796;2023-04-01T13:24:31;98818.53;;;17.59;50.45
62800;BME280;48842;51.046;13.796;2023-04-01T13:27:22;98807.59;;;18.02;49.88
62800;BME280;48842;51.046;13.796;2023-04-01T13:32:35;98817.88;;;18.08;48.86
62800;BME280;48842;51.046;13.796;2023-04-01T13:35:25;98822.25;;;17.92;48.87
62800;BME280;48842;51.046;13.796;2023-04-01T13:38:29;98821.25;;;17.75;48.24
62800;BME280;48842;51.046;13.796;2023-04-01T13:44:01;98822.75;;;18.83;44.87
62800;BME280;48842;51.046;13.796;2023-04-01T13:46:47;98816.94;;;20.46;39.80
62800;BME280;48842;51.046;13.796;2023-04-01T13:49:39;98813.94;;;20.81;39.84
62800;BME280;48842;51.046;13.796;2023-04-01T13:52:24;98809.56;;;20.51;38.54
62800;BME280;48842;51.046;13.796;2023-04-01T13:55:21;98815.41;;;20.13;39.79
62800;BME280;48842;51.046;13.796;2023-04-01T14:00:35;98825.56;;;20.06;40.06
62800;BME280;48842;51.046;13.796;2023-04-01T14:03:25;98817.50;;;20.22;41.03
62800;BME280;48842;51.046;13.796;2023-04-01T14:06:31;98813.94;;;20.37;38.39
62800;BME280;48842;51.046;13.796;2023-04-01T14:09:13;98828.22;;;20.06;38.80
62800;BME280;48842;51.046;13.796;2023-04-01T14:11:52;98818.91;;;19.68;39.16
62800;BME280;48842;51.046;13.796;2023-04-01T14:14:33;98817.16;;;19.21;39.64
62800;BME280;48842;51.046;13.796;2023-04-01T14:17:14;98827.31;;;18.81;39.78
62800;BME280;48842;51.046;13.796;2023-04-01T14:20:13;98827.28;;;18.31;42.09
62800;BME280;48842;51.046;13.796;2023-04-01T14:23:05;98829.63;;;17.85;43.78
62800;BME280;48842;51.046;13.796;2023-04-01T14:28:43;98833.66;;;17.57;44.48
62800;BME280;48842;51.046;13.796;2023-04-01T14:34:08;98842.31;;;17.24;45.93
62800;BME280;48842;51.046;13.796;2023-04-01T14:37:01;98845.06;;;17.21;45.99
62800;BME280;48842;51.046;13.796;2023-04-01T14:39:59;98856.63;;;17.20;46.54
62800;BME280;48842;51.046;13.796;2023-04-01T14:43:03;98849.66;;;17.37;45.95
62800;BME280;48842;51.046;13.796;2023-04-01T14:48:49;98847.63;;;17.42;45.42
62800;BME280;48842;51.046;13.796;2023-04-01T14:51:22;98846.22;;;17.35;45.32
62800;BME280;48842;51.046;13.796;2023-04-01T14:54:00;98852.25;;;17.19;45.90
62800;BME280;48842;51.046;13.796;2023-04-01T14:59:01;98859.75;;;16.90;45.88
62800;BME280;48842;51.046;13.796;2023-04-01T15:01:35;98860.00;;;16.84;46.54
62800;BME280;48842;51.046;13.796;2023-04-01T15:04:26;98857.50;;;16.81;46.22
62800;BME280;48842;51.046;13.796;2023-04-01T15:07:08;98868.97;;;17.01;46.71
62800;BME280;48842;51.046;13.796;2023-04-01T15:10:02;98872.03;;;17.30;45.94
62800;BME280;48842;51.046;13.796;2023-04-01T15:12:50;98869.41;;;17.66;45.48
62800;BME280;48842;51.046;13.796;2023-04-01T15:18:44;98883.56;;;18.19;42.44
62800;BME280;48842;51.046;13.796;2023-04-01T15:26:52;98885.50;;;18.51;41.62
62800;BME280;48842;51.046;13.796;2023-04-01T15:32:24;98881.94;;;18.52;41.87
62800;BME280;48842;51.046;13.796;2023-04-01T15:35:12;98888.63;;;18.59;41.43
62800;BME280;48842;51.046;13.796;2023-04-01T15:43:46;98893.72;;;18.11;41.49
62800;BME280;48842;51.046;13.796;2023-04-01T15:46:48;98900.00;;;17.91;42.08
62800;BME280;48842;51.046;13.796;2023-04-01T15:49:37;98900.44;;;17.82;42.23
62800;BME280;48842;51.046;13.796;2023-04-01T15:57:47;98917.97;;;17.28;44.19
62800;BME280;48842;51.046;13.796;2023-04-01T16:13:37;98932.50;;;16.60;45.95
62800;BME280;48842;51.046;13.796;2023-04-01T16:16:43;98936.47;;;16.49;46.74
62800;BME280;48842;51.046;13.796;2023-04-01T16:19:31;98938.47;;;16.44;46.67
62800;BME280;48842;51.046;13.796;2023-04-01T16:22:09;98935.34;;;16.34;46.32
62800;BME280;48842;51.046;13.796;2023-04-01T16:25:07;98941.88;;;16.26;45.96
62800;BME280;48842;51.046;13.796;2023-04-01T16:27:50;98940.34;;;16.20;46.61
62800;BME280;48842;51.046;13.796;2023-04-01T16:30:35;98944.91;;;16.16;46.06
62800;BME280;48842;51.046;13.796;2023-04-01T16:33:22;98942.50;;;16.10;45.91
62800;BME280;48842;51.046;13.796;2023-04-01T16:36:08;98953.72;;;15.95;46.13
62800;BME280;48842;51.046;13.796;2023-04-01T16:41:31;98962.78;;;15.65;47.42
62800;BME280;48842;51.046;13.796;2023-04-01T16:44:08;98968.47;;;15.54;47.55
62800;BME280;48842;51.046;13.796;2023-04-01T16:46:39;98976.63;;;15.48;48.46
62800;BME280;48842;51.046;13.796;2023-04-01T16:51:48;98978.50;;;15.45;48.32
62800;BME280;48842;51.046;13.796;2023-04-01T16:54:28;98980.41;;;15.41;49.47
62800;BME280;48842;51.046;13.796;2023-04-01T17:02:17;98997.97;;;15.42;49.83
62800;BME280;48842;51.046;13.796;2023-04-01T17:07:27;98999.13;;;15.35;50.30
62800;BME280;48842;51.046;13.796;2023-04-01T17:13:17;99011.97;;;15.21;50.80
62800;BME280;48842;51.046;13.796;2023-04-01T17:16:20;99013.84;;;15.17;51.21
62800;BME280;48842;51.046;13.796;2023-04-01T17:18:59;99021.00;;;15.13;52.01
62800;BME280;48842;51.046;13.796;2023-04-01T17:27:17;99024.50;;;15.14;52.28
62800;BME280;48842;51.046;13.796;2023-04-01T17:30:45;99026.28;;;15.13;52.71
62800;BME280;48842;51.046;13.796;2023-04-01T17:32:51;99030.78;;;15.11;52.64
62800;BME280;48842;51.046;13.796;2023-04-01T17:35:51;99040.56;;;15.08;53.92
62800;BME280;48842;51.046;13.796;2023-04-01T17:38:51;99045.16;;;15.03;53.97
62800;BME280;48842;51.046;13.796;2023-04-01T17:41:55;99046.16;;;14.98;53.67
62800;BME280;48842;51.046;13.796;2023-04-01T17:44:34;99048.03;;;14.95;53.92
62800;BME280;48842;51.046;13.796;2023-04-01T17:47:17;99056.88;;;14.94;54.43
62800;BME280;48842;51.046;13.796;2023-04-01T17:50:30;99050.72;;;14.93;56.25